Main page
METAR-TAF:

METAR-TAF

Airports :

Camilo Daza International Airport

Cúcuta, Colombia

latitude: 07-56N, longitude: 072-31W, elevation: 250 m

Current weather observation

The report was made 39 minutes ago, at 23:00 UTC
Wind 5 kt from the North/Northwest, varying between Northwest and North
Temperature 29°C
Humidity 66%
Pressure 1011 hPa
Visibility 10 km or more
Scattered clouds at a height of 2000 ft, Towering cumulus.
Scattered clouds at a height of 8000 ft

METAR: SKCC 242300Z 34005KT 310V010 9999 SCT020TCU SCT080 29/22 Q1011 RNK TCU/W/NW

Time: 18:39 (23:39 UTC)

Forecast

The report was made 1 hour and 9 minutes ago, at 22:30 UTC
Forecast valid from 25 at 00 UTC to 25 at 24 UTC
Wind 2 kt from variable directions
Visibility 10 km or more
Scattered clouds at a height of 1800 ft
Becoming
from 25 at 12 UTC to 25 at 14 UTC
Wind 15 kt from the South

TAF: SKCC 242230Z 2500/2524 VRB02KT 9999 SCT018 BECMG 2512/2514 18015KT TX35/2519Z TN25/2510Z

Weather observations and forecasts of more than 4000 airports (METAR and TAF reports).

The available stations are represented by yellow and red dots on the map.

Hover mouse over dot to see the name of the station.

Then click to see weather observations and forecasts.

To change the map : click on the green buttons with a black cross to zoom in, on the green button with a dash to zoom out, or on the green arrows for adjacent maps.


METAR-TAF: